Time;durP1;ratioP1;P1;durP2;ratioP2;P2;SDS_P1;SDS_P2;PMS_P1;PMS_P2;Temp;Humidity;BMP_temperature;BMP_pressure;BME280_temperature;BME280_humidity;BME280_pressure;Samples;Min_cycle;Max_cycle;Signal;HPM_P1;HPM_P2
2024/01/12 12:33:09;;;;;;;2.33;2.13;;;;;;;;;;6159501;23;20042;-93
2024/01/12 12:35:35;;;;;;;1.92;1.83;;;;;;;;;;6103962;23;20025;-91
2024/01/12 12:38:04;;;;;;;1.92;1.70;;;;;;;;;;6129548;23;20006;-93
2024/01/12 12:40:36;;;;;;;1.80;1.70;;;;;;;;;;6103778;23;20068;-94
2024/01/12 12:43:02;;;;;;;2.03;1.85;;;;;;;;;;6129227;23;20002;-92
2024/01/12 12:45:28;;;;;;;5.45;2.25;;;;;;;;;;6102496;23;20025;-93
2024/01/12 19:24:16;;;;;;;6.87;4.63;;;;;;;;;;6186519;23;20013;-95
2024/01/12 19:26:41;;;;;;;7.13;4.72;;;;;;;;;;6190143;23;20261;-94
2024/01/12 19:29:07;;;;;;;5.60;4.57;;;;;;;;;;6189432;23;20420;-94
2024/01/12 19:31:32;;;;;;;6.75;4.95;;;;;;;;;;6189609;23;20096;-94
2024/01/12 19:33:59;;;;;;;7.75;5.22;;;;;;;;;;6192825;23;20447;-95
2024/01/12 19:36:25;;;;;;;7.53;5.00;;;;;;;;;;6169112;23;20005;-96
2024/01/12 19:38:50;;;;;;;8.23;5.05;;;;;;;;;;6190960;23;20068;-96
2024/01/12 19:41:26;;;;;;;6.00;5.10;;;;;;;;;;6192465;23;20059;-94
2024/01/12 19:43:52;;;;;;;9.73;5.88;;;;;;;;;;6188815;23;20020;-94
2024/01/12 19:46:17;;;;;;;8.07;5.55;;;;;;;;;;6187672;23;20005;-94
2024/01/12 19:48:43;;;;;;;6.75;5.28;;;;;;;;;;6187505;23;20031;-95
2024/01/12 19:51:09;;;;;;;8.30;5.30;;;;;;;;;;6187271;23;20088;-94
2024/01/12 19:53:34;;;;;;;6.10;5.07;;;;;;;;;;6188258;23;20059;-95
2024/01/12 19:55:59;;;;;;;9.15;6.03;;;;;;;;;;6187133;23;20032;-95
2024/01/12 19:58:25;;;;;;;9.02;5.65;;;;;;;;;;6187912;23;20001;-95
2024/01/12 20:01:02;;;;;;;8.98;5.47;;;;;;;;;;6192707;23;20005;-94
2024/01/12 20:03:29;;;;;;;7.93;5.43;;;;;;;;;;6172736;23;20001;-95
2024/01/12 20:05:54;;;;;;;7.55;5.20;;;;;;;;;;6204092;23;20008;-95
2024/01/12 20:08:21;;;;;;;7.55;4.97;;;;;;;;;;6213430;23;20048;-95
2024/01/12 20:10:46;;;;;;;8.90;5.30;;;;;;;;;;6211792;23;20009;-94
2024/01/12 20:13:12;;;;;;;6.93;5.97;;;;;;;;;;6193837;23;20339;-94
2024/01/12 20:15:37;;;;;;;11.48;8.20;;;;;;;;;;6191281;23;20083;-93
2024/01/12 20:18:03;;;;;;;19.27;12.00;;;;;;;;;;6189003;23;20105;-93
2024/01/12 20:20:29;;;;;;;11.20;8.30;;;;;;;;;;6189624;23;20021;-93
2024/01/12 20:22:54;;;;;;;13.27;7.45;;;;;;;;;;6190621;23;20009;-94
2024/01/12 20:25:20;;;;;;;11.27;7.50;;;;;;;;;;6188707;23;20021;-95
2024/01/12 20:27:46;;;;;;;19.08;10.10;;;;;;;;;;6188130;23;20008;-95
2024/01/12 20:30:13;;;;;;;15.30;9.13;;;;;;;;;;6189622;23;20062;-95
2024/01/12 20:32:38;;;;;;;28.98;15.40;;;;;;;;;;6188359;23;20436;-94
2024/01/12 20:35:04;;;;;;;30.63;13.93;;;;;;;;;;6188128;23;20012;-93
2024/01/12 20:37:30;;;;;;;33.85;13.57;;;;;;;;;;6188783;23;20083;-95
2024/01/12 20:39:57;;;;;;;81.65;30.00;;;;;;;;;;6188918;23;20009;-92
2024/01/12 20:42:22;;;;;;;40.53;16.20;;;;;;;;;;6188872;23;20016;-93
2024/01/12 20:44:48;;;;;;;18.85;8.82;;;;;;;;;;6189528;23;20012;-94
2024/01/12 20:47:13;;;;;;;14.77;7.57;;;;;;;;;;6193733;23;19997;-95
2024/01/12 20:49:41;;;;;;;104.40;36.65;;;;;;;;;;6190892;23;20072;-96
2024/01/12 20:52:06;;;;;;;79.57;27.63;;;;;;;;;;6189853;23;20009;-94
2024/01/12 20:54:32;;;;;;;39.35;15.15;;;;;;;;;;6189428;23;20005;-92
2024/01/12 20:56:57;;;;;;;28.35;13.38;;;;;;;;;;6189187;23;20451;-93
2024/01/12 20:59:22;;;;;;;24.73;12.52;;;;;;;;;;6187875;23;20009;-93
2024/01/12 21:01:49;;;;;;;28.95;13.63;;;;;;;;;;6188025;23;20009;-96
2024/01/12 21:04:15;;;;;;;32.15;13.82;;;;;;;;;;6188618;23;20032;-92
2024/01/12 21:06:40;;;;;;;29.77;14.13;;;;;;;;;;6188083;23;20017;-94
2024/01/12 21:09:09;;;;;;;34.47;16.15;;;;;;;;;;6189012;23;20009;-93
2024/01/12 21:11:35;;;;;;;30.80;15.90;;;;;;;;;;6191240;23;20013;-93
2024/01/12 21:14:01;;;;;;;29.48;16.15;;;;;;;;;;6193527;23;20009;-94
2024/01/12 21:16:27;;;;;;;33.65;15.85;;;;;;;;;;6193239;23;20301;-93
2024/01/12 21:18:54;;;;;;;28.00;14.85;;;;;;;;;;6191728;23;19997;-96
2024/01/12 21:21:20;;;;;;;25.42;14.05;;;;;;;;;;6201737;23;20340;-92
2024/01/12 21:23:46;;;;;;;25.45;13.48;;;;;;;;;;6196836;23;20367;-96
2024/01/12 21:26:14;;;;;;;24.15;12.13;;;;;;;;;;6193661;23;20013;-95
2024/01/12 21:28:40;;;;;;;17.80;11.45;;;;;;;;;;6196705;23;20009;-95
2024/01/12 21:31:06;;;;;;;24.73;13.05;;;;;;;;;;6195148;23;20446;-95
2024/01/12 21:33:31;;;;;;;23.67;12.27;;;;;;;;;;6194373;23;20005;-96
2024/01/12 21:35:58;;;;;;;13.80;8.95;;;;;;;;;;6193957;23;20001;-96
2024/01/12 21:38:23;;;;;;;15.32;9.20;;;;;;;;;;6167014;23;20016;-96
2024/01/12 21:40:49;;;;;;;16.48;9.05;;;;;;;;;;6193877;23;20005;-96
2024/01/12 21:43:15;;;;;;;14.38;9.32;;;;;;;;;;6193847;23;20012;-95
2024/01/12 21:45:41;;;;;;;16.25;9.98;;;;;;;;;;6192588;23;20009;-94
2024/01/12 21:48:06;;;;;;;17.35;9.25;;;;;;;;;;6197386;23;20005;-94
2024/01/12 21:50:33;;;;;;;13.95;9.18;;;;;;;;;;6204846;23;20016;-95
2024/01/12 21:53:00;;;;;;;12.88;9.57;;;;;;;;;;6210192;23;20012;-95
2024/01/12 21:55:27;;;;;;;13.15;8.43;;;;;;;;;;6203408;23;20012;-95
2024/01/12 21:57:54;;;;;;;11.73;7.38;;;;;;;;;;6206155;23;20005;-94
2024/01/12 22:00:20;;;;;;;12.02;7.75;;;;;;;;;;6203005;23;20024;-96
2024/01/12 22:02:45;;;;;;;11.75;7.60;;;;;;;;;;6198298;23;20314;-94
2024/01/12 22:05:11;;;;;;;14.38;8.20;;;;;;;;;;6193640;23;20001;-95
2024/01/12 22:07:36;;;;;;;13.55;8.52;;;;;;;;;;6192806;23;20059;-96
2024/01/12 22:10:02;;;;;;;12.18;8.35;;;;;;;;;;6186732;23;20087;-91
2024/01/12 22:12:27;;;;;;;15.40;9.10;;;;;;;;;;6187424;23;20016;-96
2024/01/12 22:14:53;;;;;;;14.90;9.02;;;;;;;;;;6192595;23;20032;-96
2024/01/12 22:17:18;;;;;;;13.05;8.48;;;;;;;;;;6192717;23;20013;-95
2024/01/12 22:19:44;;;;;;;13.82;9.88;;;;;;;;;;6197521;23;20005;-94
2024/01/12 22:22:09;;;;;;;16.30;10.45;;;;;;;;;;6187378;23;20499;-92
2024/01/12 22:24:35;;;;;;;16.23;9.90;;;;;;;;;;6185956;23;20056;-92
2024/01/12 22:27:00;;;;;;;17.75;9.95;;;;;;;;;;6160575;23;20032;-96
2024/01/12 22:29:26;;;;;;;15.02;9.77;;;;;;;;;;6210217;23;20021;-96
2024/01/12 22:31:53;;;;;;;14.68;9.40;;;;;;;;;;6185018;23;20077;-94
2024/01/12 22:34:19;;;;;;;13.70;9.15;;;;;;;;;;6198553;23;20002;-96
2024/01/12 22:36:44;;;;;;;15.38;9.75;;;;;;;;;;6198861;23;20027;-96
2024/01/12 22:39:10;;;;;;;11.55;8.18;;;;;;;;;;6202296;23;20012;-93
2024/01/12 22:41:36;;;;;;;14.10;9.23;;;;;;;;;;6201923;23;20095;-93
2024/01/12 22:44:02;;;;;;;12.70;8.10;;;;;;;;;;6203891;23;20171;-92
2024/01/12 22:46:29;;;;;;;12.13;8.93;;;;;;;;;;6204658;23;20016;-93
2024/01/12 22:48:54;;;;;;;14.20;8.63;;;;;;;;;;6189995;23;20337;-93
2024/01/12 22:51:20;;;;;;;14.48;8.82;;;;;;;;;;6186301;23;20030;-94
2024/01/12 22:53:46;;;;;;;12.05;7.78;;;;;;;;;;6187582;23;20009;-93
2024/01/12 22:56:12;;;;;;;12.25;7.80;;;;;;;;;;6187638;23;20337;-96
2024/01/12 22:58:39;;;;;;;26.25;13.65;;;;;;;;;;6189111;23;20013;-93
2024/01/12 23:01:05;;;;;;;27.40;14.05;;;;;;;;;;6187317;23;20013;-93
2024/01/12 23:03:31;;;;;;;38.78;20.95;;;;;;;;;;6187460;23;20384;-95
2024/01/12 23:05:57;;;;;;;21.60;13.20;;;;;;;;;;6187595;23;20009;-96
2024/01/12 23:08:23;;;;;;;20.00;11.02;;;;;;;;;;6187330;23;20012;-93
2024/01/12 23:10:48;;;;;;;16.27;9.77;;;;;;;;;;6187144;23;20009;-96
2024/01/12 23:13:14;;;;;;;18.45;9.60;;;;;;;;;;6188157;23;20067;-93
2024/01/12 23:15:41;;;;;;;13.68;8.75;;;;;;;;;;6186745;23;20084;-93
2024/01/12 23:18:06;;;;;;;13.88;9.15;;;;;;;;;;6187355;23;20018;-93
2024/01/12 23:20:32;;;;;;;15.30;9.18;;;;;;;;;;6187876;23;20371;-92
2024/01/12 23:22:58;;;;;;;15.10;9.75;;;;;;;;;;6189242;23;20032;-96
2024/01/12 23:25:24;;;;;;;14.10;9.55;;;;;;;;;;6187718;23;20005;-95
2024/01/12 23:27:49;;;;;;;15.52;8.77;;;;;;;;;;6187024;23;20005;-92
2024/01/12 23:30:14;;;;;;;6.63;4.90;;;;;;;;;;6187240;23;20439;-95
2024/01/12 23:32:40;;;;;;;8.43;5.82;;;;;;;;;;6188801;23;20005;-94
2024/01/12 23:35:06;;;;;;;8.90;6.68;;;;;;;;;;6199406;23;20029;-93
2024/01/12 23:37:33;;;;;;;10.55;8.25;;;;;;;;;;6201783;23;20005;-95
2024/01/12 23:39:58;;;;;;;11.07;7.35;;;;;;;;;;6192395;23;20033;-94
2024/01/12 23:42:25;;;;;;;11.00;7.50;;;;;;;;;;6193496;23;20017;-96
2024/01/12 23:44:51;;;;;;;12.35;7.93;;;;;;;;;;6198616;23;20017;-94
2024/01/12 23:47:18;;;;;;;10.93;8.18;;;;;;;;;;6198740;23;20048;-96
2024/01/12 23:49:43;;;;;;;13.32;8.75;;;;;;;;;;6203969;23;20090;-94
2024/01/12 23:52:10;;;;;;;12.48;8.60;;;;;;;;;;6205375;23;20005;-93
2024/01/12 23:54:36;;;;;;;14.40;9.18;;;;;;;;;;6198968;23;20417;-95
2024/01/12 23:57:02;;;;;;;16.67;10.63;;;;;;;;;;6167147;23;20009;-96
